Time;durP1;ratioP1;P1;durP2;ratioP2;P2;SDS_P1;SDS_P2;PMS_P1;PMS_P2;Temp;Humidity;BMP_temperature;BMP_pressure;BME280_temperature;BME280_humidity;BME280_pressure;Samples;Min_cycle;Max_cycle;Signal;HPM_P1;HPM_P2
2023/12/29 00:02:23;;;;;;;16.00;3.53;;;9.60;99.90;;;;;;5073394;28;20123;-62
2023/12/29 00:04:49;;;;;;;19.17;3.22;;;8.90;99.90;;;;;;5072448;28;20086;-61
2023/12/29 00:07:15;;;;;;;19.80;6.70;;;10.10;99.90;;;;;;5073366;28;20040;-62
2023/12/29 00:09:41;;;;;;;15.00;3.22;;;9.00;99.90;;;;;;5071743;28;20131;-61
2023/12/29 00:12:08;;;;;;;17.17;2.88;;;9.90;99.90;;;;;;5073248;28;20116;-61
2023/12/29 00:14:37;;;;;;;14.45;2.65;;;9.50;99.90;;;;;;5073137;28;20041;-61
2023/12/29 00:17:03;;;;;;;13.45;2.80;;;10.00;99.90;;;;;;5073267;28;20071;-61
2023/12/29 00:19:29;;;;;;;15.80;2.92;;;9.60;99.90;;;;;;5072992;28;20420;-63
2023/12/29 00:21:54;;;;;;;17.02;3.28;;;9.40;99.90;;;;;;5055303;28;20051;-62
2023/12/29 00:24:20;;;;;;;13.52;2.92;;;9.40;99.90;;;;;;5072872;28;20745;-62
2023/12/29 00:26:47;;;;;;;13.07;3.05;;;10.30;99.90;;;;;;5072931;28;20385;-62
2023/12/29 00:29:15;;;;;;;13.73;3.33;;;9.80;99.90;;;;;;5072793;28;20047;-61
2023/12/29 00:31:40;;;;;;;16.02;3.05;;;9.70;99.90;;;;;;5072634;28;20123;-62
2023/12/29 00:34:06;;;;;;;18.27;3.60;;;10.50;99.90;;;;;;5072748;28;20140;-62
2023/12/29 00:36:32;;;;;;;20.88;4.88;;;10.40;99.90;;;;;;5072490;28;20052;-61
2023/12/29 00:38:57;;;;;;;17.27;3.65;;;10.00;99.90;;;;;;5072890;28;20040;-62
2023/12/29 00:41:23;;;;;;;23.17;4.72;;;8.90;99.90;;;;;;5072466;28;20473;-62
2023/12/29 00:43:49;;;;;;;16.20;3.13;;;9.50;99.90;;;;;;5072457;28;20041;-62
2023/12/29 00:46:17;;;;;;;16.80;3.03;;;8.80;99.90;;;;;;5072394;28;20076;-61
2023/12/29 00:48:43;;;;;;;12.68;2.90;;;10.50;99.90;;;;;;5072297;28;20434;-62
2023/12/29 00:51:09;;;;;;;17.83;2.97;;;10.10;99.90;;;;;;5072385;28;20044;-61
2023/12/29 00:53:35;;;;;;;15.30;2.47;;;10.40;99.90;;;;;;5072472;28;20044;-61
2023/12/29 00:56:01;;;;;;;14.55;2.40;;;9.00;99.90;;;;;;5072345;28;20397;-62
2023/12/29 00:58:27;;;;;;;18.70;2.97;;;9.50;99.90;;;;;;5072463;28;20032;-61
2023/12/29 01:00:52;;;;;;;17.13;2.92;;;8.70;99.90;;;;;;5072518;28;20047;-61
2023/12/29 01:03:18;;;;;;;15.68;3.10;;;8.90;99.90;;;;;;5072269;28;20510;-61
2023/12/29 01:05:44;;;;;;;17.23;2.60;;;10.40;99.90;;;;;;5072526;28;20064;-61
2023/12/29 01:08:09;;;;;;;16.48;3.17;;;8.90;99.90;;;;;;5072200;28;20037;-61
2023/12/29 01:10:35;;;;;;;18.77;3.97;;;10.10;99.90;;;;;;5072501;28;20063;-61
2023/12/29 01:13:01;;;;;;;21.02;3.38;;;8.80;99.90;;;;;;5072090;28;20485;-61
2023/12/29 01:15:28;;;;;;;16.35;2.92;;;10.10;99.90;;;;;;5071930;28;20044;-61
2023/12/29 01:17:54;;;;;;;24.50;4.43;;;10.00;99.90;;;;;;5072271;28;20036;-62
2023/12/29 01:20:19;;;;;;;20.70;3.33;;;9.00;99.90;;;;;;5072005;28;20044;-62
2023/12/29 01:22:45;;;;;;;15.18;3.38;;;9.60;99.90;;;;;;5071864;28;20047;-61
2023/12/29 01:25:11;;;;;;;20.02;3.15;;;8.70;99.90;;;;;;5072120;28;20132;-60
2023/12/29 01:27:36;;;;;;;23.65;3.45;;;9.20;99.90;;;;;;5070702;28;20041;-61
2023/12/29 01:30:02;;;;;;;19.75;3.10;;;10.30;99.90;;;;;;5071795;28;20045;-61
2023/12/29 01:32:28;;;;;;;14.88;2.92;;;8.60;99.90;;;;;;5070820;28;20102;-61
2023/12/29 01:34:53;;;;;;;15.60;3.35;;;8.50;99.90;;;;;;5071719;28;20124;-61
2023/12/29 01:37:19;;;;;;;16.27;3.05;;;8.70;99.90;;;;;;5071855;28;20062;-62
2023/12/29 01:39:44;;;;;;;18.08;3.97;;;8.90;99.90;;;;;;5072157;28;20080;-61
2023/12/29 01:42:13;;;;;;;16.25;3.30;;;8.80;99.90;;;;;;5070650;28;20696;-62
2023/12/29 01:44:39;;;;;;;24.50;4.05;;;10.20;99.90;;;;;;5072075;28;20044;-61
2023/12/29 01:47:13;;;;;;;20.92;3.90;;;8.60;99.90;;;;;;5071592;28;20048;-61
2023/12/29 01:49:39;;;;;;;25.00;3.50;;;9.20;99.90;;;;;;5071605;28;20485;-62
2023/12/29 01:52:06;;;;;;;23.48;4.00;;;8.90;99.90;;;;;;5071722;28;20076;-62
2023/12/29 01:54:42;;;;;;;18.20;3.00;;;8.60;99.90;;;;;;5071855;28;20040;-62
2023/12/29 01:57:08;;;;;;;19.23;3.13;;;10.30;99.90;;;;;;5070712;28;20052;-62
2023/12/29 01:59:35;;;;;;;16.27;2.90;;;10.10;99.90;;;;;;5071868;28;20051;-61
2023/12/29 02:02:02;;;;;;;19.02;3.00;;;8.80;99.90;;;;;;5071582;28;20040;-61
2023/12/29 02:04:28;;;;;;;15.95;2.60;;;10.10;99.90;;;;;;5071621;28;20059;-61
2023/12/29 02:06:55;;;;;;;12.75;2.00;;;9.80;99.90;;;;;;5071798;28;20048;-61
2023/12/29 02:09:21;;;;;;;16.85;3.30;;;8.80;99.90;;;;;;5071820;28;20041;-62
2023/12/29 02:11:48;;;;;;;12.88;2.45;;;8.80;99.90;;;;;;5055328;28;20570;-64
2023/12/29 02:14:17;;;;;;;13.18;3.08;;;10.00;99.90;;;;;;5054022;28;20091;-61
2023/12/29 02:16:56;;;;;;;14.50;2.88;;;9.10;99.90;;;;;;5055284;28;20523;-61
2023/12/29 02:19:41;;;;;;;14.05;2.55;;;9.00;99.90;;;;;;5055585;28;20041;-61
2023/12/29 02:22:07;;;;;;;12.25;1.92;;;9.00;99.90;;;;;;5055232;28;20040;-61
2023/12/29 02:24:35;;;;;;;13.70;2.72;;;10.00;99.90;;;;;;5054113;28;20174;-61
2023/12/29 02:27:14;;;;;;;11.13;1.95;;;8.80;99.90;;;;;;5054959;28;20049;-61
2023/12/29 02:29:44;;;;;;;15.93;1.90;;;9.70;99.90;;;;;;5055411;28;20052;-61
2023/12/29 02:32:16;;;;;;;12.85;2.30;;;9.20;99.90;;;;;;5054984;28;20044;-61
2023/12/29 02:34:44;;;;;;;14.32;2.45;;;9.80;99.90;;;;;;5055422;28;20421;-62
2023/12/29 02:37:11;;;;;;;15.05;2.55;;;8.80;99.90;;;;;;5054908;28;20511;-62
2023/12/29 02:39:37;;;;;;;17.30;2.70;;;8.80;99.90;;;;;;5054795;28;20115;-61
2023/12/29 02:42:03;;;;;;;13.93;3.33;;;8.90;99.90;;;;;;5054842;28;20131;-61
2023/12/29 02:44:28;;;;;;;15.00;2.40;;;9.40;99.90;;;;;;5054400;28;20416;-62
2023/12/29 02:46:54;;;;;;;17.90;2.90;;;9.60;99.90;;;;;;5054401;28;20041;-62
2023/12/29 02:49:20;;;;;;;20.08;3.33;;;9.10;99.90;;;;;;5054536;28;20057;-62
2023/12/29 02:51:47;;;;;;;15.07;2.10;;;8.70;99.90;;;;;;5054482;28;20048;-62
2023/12/29 02:54:13;;;;;;;15.68;3.40;;;8.70;99.90;;;;;;5054529;28;20041;-62
2023/12/29 02:56:39;;;;;;;20.08;2.90;;;9.50;99.90;;;;;;5054548;28;20037;-62
2023/12/29 02:59:04;;;;;;;22.90;4.45;;;8.80;99.90;;;;;;5054665;28;20080;-62
2023/12/29 03:01:30;;;;;;;18.55;3.03;;;9.00;99.90;;;;;;5053031;28;20136;-61
2023/12/29 03:03:56;;;;;;;18.92;3.03;;;9.90;99.90;;;;;;5054429;28;20140;-62
2023/12/29 03:06:22;;;;;;;23.40;3.67;;;9.40;99.90;;;;;;5054385;28;20143;-61
2023/12/29 03:08:47;;;;;;;20.55;3.10;;;8.90;99.90;;;;;;5054196;28;20124;-62
2023/12/29 03:11:13;;;;;;;19.13;3.50;;;9.80;99.90;;;;;;5054399;28;20091;-60
2023/12/29 03:13:39;;;;;;;23.42;4.38;;;9.80;99.90;;;;;;5053146;28;20124;-61
2023/12/29 03:16:04;;;;;;;25.05;4.47;;;9.10;99.90;;;;;;5053889;28;20048;-61
2023/12/29 03:18:30;;;;;;;19.38;3.40;;;9.00;99.90;;;;;;5054079;28;20037;-61
2023/12/29 03:20:56;;;;;;;29.05;5.15;;;8.80;99.90;;;;;;5052166;28;20080;-61
2023/12/29 03:23:21;;;;;;;22.42;4.55;;;9.00;99.90;;;;;;5053459;28;20505;-61
2023/12/29 03:25:47;;;;;;;23.73;4.55;;;8.80;99.90;;;;;;5054031;28;20481;-61
2023/12/29 03:28:13;;;;;;;24.80;4.00;;;9.70;99.90;;;;;;5053640;28;20081;-60
2023/12/29 03:30:38;;;;;;;29.92;4.63;;;10.10;99.90;;;;;;5054025;28;20052;-61
2023/12/29 03:33:04;;;;;;;25.13;4.68;;;9.60;99.90;;;;;;5052605;28;20032;-61
2023/12/29 03:35:30;;;;;;;30.65;6.53;;;10.40;99.90;;;;;;5053930;28;20037;-62
2023/12/29 03:37:55;;;;;;;29.58;4.97;;;10.20;99.90;;;;;;5052925;28;20469;-61
2023/12/29 03:40:21;;;;;;;34.03;5.30;;;10.20;99.90;;;;;;5054151;28;20404;-61
2023/12/29 03:42:47;;;;;;;33.42;4.95;;;8.70;99.90;;;;;;5053662;28;20597;-61
2023/12/29 03:45:12;;;;;;;27.73;5.00;;;10.00;99.90;;;;;;5053678;28;20398;-62
2023/12/29 03:47:38;;;;;;;26.58;4.53;;;9.20;99.90;;;;;;5053646;28;20091;-61
2023/12/29 03:50:04;;;;;;;26.98;4.28;;;10.00;99.90;;;;;;5053363;28;20075;-61
2023/12/29 03:52:30;;;;;;;23.08;4.03;;;9.90;99.90;;;;;;5053517;28;20053;-61
2023/12/29 03:54:55;;;;;;;22.25;3.50;;;9.00;99.90;;;;;;5053692;28;20029;-61
2023/12/29 03:57:21;;;;;;;17.33;3.15;;;9.70;99.90;;;;;;5053708;28;20040;-61
2023/12/29 03:59:46;;;;;;;18.40;3.20;;;9.20;99.90;;;;;;5053772;28;20037;-61
2023/12/29 04:02:12;;;;;;;15.60;3.20;;;9.00;99.90;;;;;;5053396;28;20056;-61
2023/12/29 04:04:38;;;;;;;21.73;3.80;;;8.90;99.90;;;;;;5053799;28;20532;-61
2023/12/29 04:07:04;;;;;;;20.20;3.20;;;9.60;99.90;;;;;;5053218;28;20127;-61
2023/12/29 04:09:31;;;;;;;25.55;4.78;;;8.80;99.90;;;;;;5053435;28;20124;-62
2023/12/29 04:11:56;;;;;;;24.70;4.13;;;8.80;99.90;;;;;;5053629;28;20391;-62
2023/12/29 04:14:22;;;;;;;23.73;3.70;;;9.10;99.90;;;;;;5053166;28;20037;-61
2023/12/29 04:16:48;;;;;;;22.30;4.18;;;9.70;99.90;;;;;;5053238;28;20029;-61
2023/12/29 04:19:13;;;;;;;25.20;5.05;;;9.70;99.90;;;;;;5051679;28;20128;-61
2023/12/29 04:21:39;;;;;;;23.67;4.03;;;9.00;99.90;;;;;;5051710;28;20110;-61
2023/12/29 04:24:05;;;;;;;21.25;4.00;;;9.50;99.90;;;;;;5052749;28;20456;-61
2023/12/29 04:26:36;;;;;;;20.02;3.45;;;9.60;99.90;;;;;;5053206;28;20078;-61
2023/12/29 04:29:01;;;;;;;19.23;4.03;;;9.60;99.90;;;;;;5052921;28;20059;-61
2023/12/29 04:31:27;;;;;;;25.33;3.88;;;8.90;99.90;;;;;;5052987;28;20120;-61
2023/12/29 04:33:53;;;;;;;24.58;4.13;;;9.70;99.90;;;;;;5052481;28;20041;-61
2023/12/29 04:36:18;;;;;;;24.40;3.97;;;8.90;99.90;;;;;;5052877;28;20041;-61
2023/12/29 04:38:44;;;;;;;18.40;3.45;;;9.20;99.90;;;;;;5052648;28;20037;-61
2023/12/29 04:41:12;;;;;;;28.13;3.70;;;8.90;99.90;;;;;;5052790;28;20397;-60
2023/12/29 04:43:38;;;;;;;23.55;3.97;;;9.40;99.90;;;;;;5052876;28;20101;-62
2023/12/29 04:46:04;;;;;;;26.52;4.18;;;9.40;99.90;;;;;;5052640;28;20120;-61
2023/12/29 04:48:29;;;;;;;23.20;4.78;;;8.90;99.90;;;;;;5052009;28;20048;-61
2023/12/29 04:50:55;;;;;;;20.67;3.30;;;9.00;99.90;;;;;;5052362;28;20045;-61
2023/12/29 04:53:21;;;;;;;19.73;3.90;;;9.50;99.90;;;;;;5052253;28;20393;-61
2023/12/29 04:55:46;;;;;;;16.45;2.85;;;9.10;99.90;;;;;;5052476;28;20036;-61
2023/12/29 04:58:12;;;;;;;21.75;2.90;;;9.00;99.90;;;;;;5052247;28;20037;-61
2023/12/29 05:00:38;;;;;;;24.85;4.40;;;9.50;99.90;;;;;;5052764;28;20048;-62
2023/12/29 05:03:03;;;;;;;26.45;4.07;;;9.50;99.90;;;;;;5052163;28;20045;-61
2023/12/29 05:05:29;;;;;;;20.38;3.67;;;9.00;99.90;;;;;;5052050;28;20080;-62
2023/12/29 05:07:55;;;;;;;20.80;4.18;;;9.10;99.90;;;;;;5051859;28;20122;-62
2023/12/29 05:10:20;;;;;;;13.50;2.42;;;9.10;99.90;;;;;;5051953;28;20040;-62
2023/12/29 05:12:46;;;;;;;20.98;3.95;;;8.90;99.90;;;;;;5052190;28;20060;-62
2023/12/29 05:15:12;;;;;;;17.42;3.03;;;9.20;99.90;;;;;;5052286;28;20037;-62
2023/12/29 05:17:39;;;;;;;20.92;3.60;;;9.00;99.90;;;;;;5051962;28;20781;-62
2023/12/29 05:20:06;;;;;;;19.58;3.85;;;9.30;99.90;;;;;;5051999;28;20087;-62
2023/12/29 05:22:32;;;;;;;27.13;3.97;;;9.60;99.90;;;;;;5051864;28;20124;-62
2023/12/29 05:25:00;;;;;;;21.40;3.28;;;9.20;99.90;;;;;;5052222;28;20115;-61
2023/12/29 05:27:26;;;;;;;18.77;3.97;;;9.20;99.90;;;;;;5052250;28;20144;-62
2023/12/29 05:29:52;;;;;;;17.95;3.70;;;9.50;99.90;;;;;;5052013;28;20071;-62
2023/12/29 05:32:18;;;;;;;21.95;3.60;;;9.60;99.90;;;;;;5051916;28;20041;-61
2023/12/29 05:34:43;;;;;;;19.40;3.35;;;9.10;99.90;;;;;;5052073;28;20029;-60
2023/12/29 05:37:09;;;;;;;24.48;5.20;;;9.40;99.90;;;;;;5050844;28;20037;-61
2023/12/29 05:39:35;;;;;;;22.10;4.50;;;9.60;99.90;;;;;;5051935;28;20436;-61
2023/12/29 05:42:00;;;;;;;28.20;3.80;;;9.70;99.90;;;;;;5050805;28;20033;-61
2023/12/29 05:44:26;;;;;;;16.92;3.55;;;9.70;99.90;;;;;;5051974;28;20045;-61
2023/12/29 05:46:52;;;;;;;24.77;3.92;;;9.70;99.90;;;;;;5055832;28;20041;-61
2023/12/29 05:49:17;;;;;;;19.95;3.40;;;9.60;99.90;;;;;;5055520;28;20063;-61
2023/12/29 05:51:44;;;;;;;23.92;3.53;;;9.10;99.90;;;;;;5056254;28;20040;-61
2023/12/29 05:54:10;;;;;;;23.88;3.47;;;9.00;99.90;;;;;;5055716;28;20112;-62
2023/12/29 05:56:35;;;;;;;21.27;3.28;;;9.60;99.90;;;;;;5055644;28;20179;-61
2023/12/29 05:59:01;;;;;;;17.33;3.10;;;9.40;99.90;;;;;;5056081;28;20051;-61
2023/12/29 06:01:27;;;;;;;33.80;3.60;;;9.00;99.90;;;;;;5055695;28;20795;-61
2023/12/29 06:03:52;;;;;;;19.42;3.63;;;9.60;99.90;;;;;;5054977;28;20052;-61
2023/12/29 06:06:18;;;;;;;23.45;3.88;;;9.10;99.90;;;;;;5055039;28;20037;-61
2023/12/29 06:08:44;;;;;;;22.73;3.50;;;9.20;99.90;;;;;;5054731;28;20041;-61
2023/12/29 06:11:15;;;;;;;20.75;3.33;;;9.50;99.90;;;;;;5055160;28;20367;-61
2023/12/29 06:13:41;;;;;;;23.83;3.53;;;9.70;99.90;;;;;;5054523;28;20033;-61
2023/12/29 06:16:07;;;;;;;17.23;3.22;;;9.70;99.90;;;;;;5054879;28;20458;-61
2023/12/29 06:18:32;;;;;;;23.63;3.20;;;9.20;99.90;;;;;;5054779;28;20033;-62
2023/12/29 06:20:59;;;;;;;23.08;3.97;;;9.60;99.90;;;;;;5054500;28;20040;-61
2023/12/29 06:23:25;;;;;;;29.85;4.97;;;9.00;99.90;;;;;;5054628;28;20037;-63
2023/12/29 06:25:51;;;;;;;28.83;4.22;;;9.60;99.90;;;;;;5054230;28;20091;-62
2023/12/29 06:28:17;;;;;;;25.00;4.20;;;9.50;99.90;;;;;;5052889;28;20048;-62
2023/12/29 06:30:42;;;;;;;25.73;5.57;;;9.60;99.90;;;;;;5054102;28;20053;-61
2023/12/29 06:33:08;;;;;;;29.80;3.65;;;8.10;99.90;;;;;;5054530;28;20041;-63
2023/12/29 06:35:34;;;;;;;23.40;3.90;;;9.30;99.90;;;;;;5054251;28;20547;-63
2023/12/29 06:37:59;;;;;;;30.80;4.35;;;7.80;99.90;;;;;;5054051;28;20036;-62
2023/12/29 06:40:25;;;;;;;25.88;4.63;;;9.30;99.90;;;;;;5052568;28;20076;-62
2023/12/29 06:42:51;;;;;;;28.50;4.60;;;8.50;99.90;;;;;;5053134;28;20040;-61
2023/12/29 06:45:19;;;;;;;23.98;4.22;;;8.00;99.90;;;;;;5053942;28;20040;-61
2023/12/29 06:47:44;;;;;;;29.20;4.25;;;7.80;99.90;;;;;;5053885;28;20068;-61
2023/12/29 06:50:12;;;;;;;24.35;5.28;;;8.50;99.90;;;;;;5053569;28;20092;-62
2023/12/29 06:52:38;;;;;;;28.00;6.32;;;9.10;99.90;;;;;;5063740;28;20048;-62
2023/12/29 06:55:05;;;;;;;26.25;4.05;;;9.60;99.90;;;;;;5073769;28;20064;-61
2023/12/29 06:57:30;;;;;;;30.27;4.82;;;8.10;99.90;;;;;;5072301;28;20132;-61
2023/12/29 06:59:56;;;;;;;32.25;5.07;;;9.50;99.90;;;;;;5072306;28;20464;-61
2023/12/29 07:02:22;;;;;;;30.23;3.90;;;9.00;99.90;;;;;;5073795;28;20048;-61
2023/12/29 07:04:48;;;;;;;27.73;5.30;;;9.60;99.90;;;;;;5074095;28;20067;-61
2023/12/29 07:07:13;;;;;;;29.55;4.70;;;8.30;99.90;;;;;;5073633;28;20101;-61
2023/12/29 07:09:40;;;;;;;25.23;3.72;;;8.30;99.90;;;;;;5073654;28;20045;-60
2023/12/29 07:12:06;;;;;;;26.80;4.50;;;8.40;99.90;;;;;;5073621;28;20040;-61
2023/12/29 07:14:32;;;;;;;21.77;3.75;;;8.80;99.90;;;;;;5073664;28;20058;-61
2023/12/29 07:16:58;;;;;;;25.40;4.65;;;9.60;99.90;;;;;;5073458;28;20045;-61
2023/12/29 07:19:23;;;;;;;26.65;3.85;;;9.50;99.90;;;;;;5073410;28;20040;-61
2023/12/29 07:21:49;;;;;;;25.58;4.28;;;9.60;99.90;;;;;;5072253;28;20037;-61
2023/12/29 07:24:15;;;;;;;26.65;4.88;;;9.50;99.90;;;;;;5071981;28;20055;-61
2023/12/29 07:26:40;;;;;;;21.98;3.88;;;8.30;99.90;;;;;;5073297;28;20098;-61
2023/12/29 07:29:06;;;;;;;21.77;3.92;;;8.70;99.90;;;;;;5072660;28;20048;-61
2023/12/29 07:31:33;;;;;;;22.08;3.50;;;8.90;99.90;;;;;;5072734;28;20044;-62
2023/12/29 07:33:59;;;;;;;27.20;4.97;;;8.10;99.90;;;;;;5072615;28;20423;-62
2023/12/29 07:36:25;;;;;;;37.05;4.65;;;8.10;99.90;;;;;;5072714;28;20036;-62
2023/12/29 07:38:50;;;;;;;25.67;4.93;;;9.40;99.90;;;;;;5072201;28;20474;-62
2023/12/29 07:41:16;;;;;;;28.40;3.63;;;9.30;99.90;;;;;;5072802;28;20040;-61
2023/12/29 07:43:42;;;;;;;21.55;3.42;;;8.10;99.90;;;;;;5072875;28;20047;-62
2023/12/29 07:46:08;;;;;;;27.02;3.35;;;9.30;99.90;;;;;;5072951;28;20045;-61
2023/12/29 07:48:34;;;;;;;28.02;3.67;;;8.40;99.90;;;;;;5072896;28;20041;-61
2023/12/29 07:51:05;;;;;;;24.00;4.20;;;8.20;99.90;;;;;;5072217;28;20051;-60
2023/12/29 07:53:30;;;;;;;22.48;4.30;;;9.00;99.90;;;;;;5070326;28;20055;-62
2023/12/29 07:55:56;;;;;;;29.95;3.47;;;9.40;99.90;;;;;;5071772;28;20044;-61
2023/12/29 07:58:22;;;;;;;18.55;4.00;;;8.40;99.90;;;;;;5054820;28;20123;-61
2023/12/29 08:00:47;;;;;;;18.90;3.88;;;9.00;99.90;;;;;;5071268;28;20051;-62
2023/12/29 08:03:13;;;;;;;19.52;2.45;;;8.40;99.90;;;;;;5072160;28;20037;-62
2023/12/29 08:05:39;;;;;;;23.23;3.83;;;8.40;99.90;;;;;;5072203;28;20041;-61
2023/12/29 08:08:05;;;;;;;31.13;3.58;;;8.40;99.90;;;;;;5071808;28;20040;-62
2023/12/29 08:10:31;;;;;;;22.25;4.35;;;8.40;99.90;;;;;;5072056;28;20089;-62
2023/12/29 08:12:57;;;;;;;26.95;4.22;;;9.30;99.90;;;;;;5071858;28;20538;-62
2023/12/29 08:15:23;;;;;;;21.92;3.70;;;9.40;99.90;;;;;;5071073;28;20040;-62
2023/12/29 08:17:48;;;;;;;24.40;3.50;;;8.40;99.90;;;;;;5071083;28;20072;-61
2023/12/29 08:20:14;;;;;;;24.42;4.80;;;8.40;99.90;;;;;;5070819;28;20052;-61
2023/12/29 08:22:40;;;;;;;22.80;3.65;;;8.40;99.90;;;;;;5071997;28;20060;-61
2023/12/29 08:25:06;;;;;;;18.25;3.20;;;8.50;99.90;;;;;;5072088;28;20036;-62
2023/12/29 08:27:31;;;;;;;20.13;4.15;;;8.60;99.90;;;;;;5071561;28;20032;-61
2023/12/29 08:29:57;;;;;;;17.08;3.28;;;8.80;99.90;;;;;;5071472;28;20040;-62
2023/12/29 08:32:23;;;;;;;21.08;3.00;;;8.60;99.90;;;;;;5071958;28;20520;-61
2023/12/29 08:34:49;;;;;;;22.45;4.88;;;9.30;99.90;;;;;;5070730;28;20037;-61
2023/12/29 08:37:19;;;;;;;21.35;3.47;;;8.70;99.90;;;;;;5071499;28;20036;-61
2023/12/29 08:39:47;;;;;;;16.83;2.55;;;9.50;99.90;;;;;;5070603;28;20076;-61
2023/12/29 08:42:36;;;;;;;23.80;4.35;;;9.40;99.90;;;;;;5071914;28;20044;-60
2023/12/29 08:45:03;;;;;;;19.90;3.47;;;8.60;99.90;;;;;;5071117;28;20056;-61
2023/12/29 08:47:29;;;;;;;16.25;2.83;;;9.10;99.90;;;;;;5071834;28;20122;-61
2023/12/29 08:49:54;;;;;;;25.92;4.45;;;8.60;99.90;;;;;;5071528;28;20473;-61
2023/12/29 08:52:20;;;;;;;20.77;2.85;;;8.70;99.90;;;;;;5070482;28;20048;-61
2023/12/29 08:54:47;;;;;;;25.52;5.03;;;8.80;99.90;;;;;;5071419;28;20037;-62
2023/12/29 08:57:12;;;;;;;22.38;3.20;;;8.70;99.90;;;;;;5071335;28;20043;-61
2023/12/29 08:59:38;;;;;;;17.25;3.00;;;8.80;99.90;;;;;;5070318;28;20115;-61
2023/12/29 09:02:04;;;;;;;19.52;3.15;;;9.30;99.90;;;;;;5071430;28;20044;-61
2023/12/29 09:04:29;;;;;;;21.33;4.22;;;8.70;99.90;;;;;;5072221;28;20055;-61
2023/12/29 09:06:55;;;;;;;18.20;3.55;;;8.50;99.90;;;;;;5071180;28;20048;-61
2023/12/29 09:09:21;;;;;;;21.02;3.67;;;9.40;99.90;;;;;;5072152;28;20041;-61
2023/12/29 09:11:47;;;;;;;26.88;3.95;;;9.30;99.90;;;;;;5072331;28;20041;-61
2023/12/29 09:14:13;;;;;;;22.35;3.90;;;8.70;99.90;;;;;;5071985;28;20123;-61
2023/12/29 09:16:40;;;;;;;19.38;3.35;;;8.60;99.90;;;;;;5072337;28;20119;-61
2023/12/29 09:19:05;;;;;;;19.15;3.17;;;9.30;99.90;;;;;;5071275;28;20045;-61
2023/12/29 09:21:31;;;;;;;22.63;3.35;;;8.50;99.90;;;;;;5072022;28;20048;-61
2023/12/29 09:23:58;;;;;;;27.40;4.00;;;8.50;99.90;;;;;;5065976;28;20052;-59
2023/12/29 09:26:24;;;;;;;20.88;4.80;;;9.30;99.90;;;;;;5064758;28;20052;-61
2023/12/29 09:28:49;;;;;;;21.27;3.35;;;9.30;99.90;;;;;;5072098;28;20051;-61
2023/12/29 09:31:15;;;;;;;28.67;4.28;;;9.40;99.90;;;;;;5071648;28;20041;-61
2023/12/29 09:33:41;;;;;;;19.10;2.92;;;9.30;99.90;;;;;;5071488;28;20033;-60
2023/12/29 09:36:06;;;;;;;22.08;3.45;;;8.50;99.90;;;;;;5072283;28;20064;-62
2023/12/29 09:38:33;;;;;;;22.13;3.95;;;8.60;99.90;;;;;;5072085;28;20244;-61
2023/12/29 09:41:04;;;;;;;24.25;3.65;;;8.50;99.90;;;;;;5071279;28;20052;-61
2023/12/29 09:43:33;;;;;;;25.85;4.18;;;8.50;99.90;;;;;;5072037;28;20044;-61
2023/12/29 09:46:00;;;;;;;19.38;3.05;;;9.20;99.90;;;;;;5071859;28;20524;-61
2023/12/29 09:48:27;;;;;;;21.85;3.65;;;8.70;99.90;;;;;;5071803;28;20036;-61
2023/12/29 09:50:54;;;;;;;21.02;3.75;;;9.40;99.90;;;;;;5057389;28;20128;-61
2023/12/29 09:53:21;;;;;;;29.90;4.00;;;8.70;99.90;;;;;;5059584;28;20048;-61
2023/12/29 09:55:49;;;;;;;18.05;3.83;;;9.70;99.90;;;;;;5061562;28;20037;-63
2023/12/29 09:58:17;;;;;;;25.90;3.97;;;9.70;99.90;;;;;;5058952;28;20056;-61
2023/12/29 10:00:46;;;;;;;19.52;3.15;;;8.80;99.90;;;;;;5060798;28;20176;-59
2023/12/29 10:03:12;;;;;;;25.27;2.95;;;9.00;99.90;;;;;;5062381;28;20619;-64
2023/12/29 10:05:37;;;;;;;18.23;3.35;;;9.20;99.90;;;;;;5058654;28;20044;-62
2023/12/29 10:08:08;;;;;;;23.27;5.03;;;9.40;99.90;;;;;;5071989;28;20051;-61
2023/12/29 10:10:35;;;;;;;17.42;3.38;;;9.00;99.90;;;;;;5071481;28;20080;-62
2023/12/29 10:13:01;;;;;;;20.23;4.05;;;9.60;99.90;;;;;;5070412;28;20056;-62
2023/12/29 10:15:54;;;;;;;19.80;2.80;;;9.60;99.90;;;;;;5071677;28;20143;-61
2023/12/29 10:18:54;;;;;;;22.98;3.53;;;9.60;99.90;;;;;;5071687;28;20051;-62
2023/12/29 10:21:32;;;;;;;21.98;3.78;;;9.00;99.90;;;;;;5071609;28;20111;-61
2023/12/29 10:24:08;;;;;;;20.85;3.00;;;8.80;99.90;;;;;;5066582;28;20055;-62
2023/12/29 10:26:35;;;;;;;18.35;3.28;;;9.30;99.90;;;;;;5058080;28;20045;-61
2023/12/29 10:29:01;;;;;;;19.15;3.40;;;9.60;99.90;;;;;;5052890;28;20400;-61
2023/12/29 10:31:26;;;;;;;20.38;2.75;;;9.70;99.90;;;;;;5057668;28;20519;-60
2023/12/29 10:33:52;;;;;;;19.48;3.65;;;9.10;99.90;;;;;;5064614;28;20060;-61
2023/12/29 10:36:18;;;;;;;18.88;2.78;;;9.30;99.90;;;;;;5067508;28;20192;-60
2023/12/29 10:38:44;;;;;;;13.90;2.97;;;8.90;99.90;;;;;;5069868;28;20032;-60
2023/12/29 10:41:18;;;;;;;11.73;2.30;;;9.50;99.90;;;;;;5071864;28;20044;-60
2023/12/29 10:43:52;;;;;;;14.95;2.33;;;9.40;99.90;;;;;;5055076;28;20033;-60
2023/12/29 10:46:18;;;;;;;11.63;2.20;;;9.30;99.90;;;;;;5059871;28;20059;-60
2023/12/29 10:48:43;;;;;;;13.20;2.47;;;9.30;99.90;;;;;;5061866;28;20037;-60
2023/12/29 10:51:10;;;;;;;15.93;2.65;;;9.10;99.90;;;;;;5054911;28;20045;-60
2023/12/29 10:53:37;;;;;;;23.63;3.28;;;9.10;99.90;;;;;;5073960;28;20032;-61
2023/12/29 10:56:03;;;;;;;20.35;2.63;;;8.90;99.90;;;;;;5074663;28;20040;-60
2023/12/29 10:58:29;;;;;;;13.52;1.92;;;9.40;99.90;;;;;;5074662;28;20059;-59
2023/12/29 11:00:56;;;;;;;20.75;3.17;;;9.40;99.90;;;;;;5074773;28;20040;-60
2023/12/29 11:03:22;;;;;;;17.40;2.72;;;9.00;99.90;;;;;;5074498;28;20090;-60
2023/12/29 11:05:48;;;;;;;12.32;2.22;;;9.20;99.90;;;;;;5054675;28;20037;-60
2023/12/29 11:08:20;;;;;;;16.73;2.63;;;9.20;99.90;;;;;;5054608;28;20401;-60
2023/12/29 11:10:49;;;;;;;16.80;2.67;;;8.80;99.90;;;;;;5059226;28;20116;-60
2023/12/29 11:13:15;;;;;;;13.40;2.88;;;8.80;99.90;;;;;;5066582;28;20044;-60
2023/12/29 11:15:45;;;;;;;15.65;2.47;;;8.80;99.90;;;;;;5073728;28;20105;-60
2023/12/29 11:18:18;;;;;;;14.70;2.10;;;9.10;99.90;;;;;;5062003;28;20071;-60
2023/12/29 11:20:46;;;;;;;16.20;2.20;;;9.00;99.90;;;;;;5069176;28;20068;-60
2023/12/29 11:23:15;;;;;;;15.82;2.25;;;9.00;99.90;;;;;;5055381;28;20045;-61
2023/12/29 11:25:44;;;;;;;14.65;2.53;;;9.00;99.90;;;;;;5057376;28;20037;-60
2023/12/29 11:28:14;;;;;;;13.88;2.33;;;8.90;99.90;;;;;;5069649;28;20047;-60
2023/12/29 11:30:40;;;;;;;11.05;2.50;;;8.90;99.90;;;;;;5056915;28;20133;-60
2023/12/29 11:33:12;;;;;;;11.80;1.80;;;9.10;99.90;;;;;;5057514;28;20079;-60
2023/12/29 11:35:58;;;;;;;14.73;2.28;;;8.90;99.90;;;;;;5064714;28;20116;-59
2023/12/29 11:38:47;;;;;;;16.35;2.78;;;8.90;99.90;;;;;;5070623;28;20436;-60
2023/12/29 11:41:25;;;;;;;10.98;1.92;;;8.90;99.90;;;;;;5057152;28;20035;-60
2023/12/29 11:44:01;;;;;;;14.13;2.25;;;9.30;99.90;;;;;;5068350;28;20338;-60
2023/12/29 11:46:37;;;;;;;17.50;2.35;;;9.10;99.90;;;;;;5067217;28;20461;-60
2023/12/29 11:49:04;;;;;;;13.48;2.80;;;9.10;99.90;;;;;;5065083;28;20091;-60
2023/12/29 11:51:29;;;;;;;17.92;2.45;;;9.20;99.90;;;;;;5052041;28;20098;-60
2023/12/29 11:53:55;;;;;;;13.07;2.25;;;9.50;99.90;;;;;;5069478;28;20041;-60
2023/12/29 11:56:21;;;;;;;16.50;3.03;;;9.40;99.90;;;;;;5067978;28;20088;-60
2023/12/29 11:58:47;;;;;;;13.65;2.25;;;9.50;99.90;;;;;;5069855;28;20139;-60
2023/12/29 12:01:12;;;;;;;13.98;2.60;;;9.60;99.90;;;;;;5059328;28;20036;-60
2023/12/29 12:03:38;;;;;;;13.57;2.55;;;9.80;99.90;;;;;;5052816;28;20032;-59
2023/12/29 12:06:04;;;;;;;13.35;2.72;;;9.60;99.90;;;;;;5062329;28;20384;-60
2023/12/29 12:08:31;;;;;;;16.77;2.28;;;9.70;99.90;;;;;;5061738;28;20077;-60
2023/12/29 12:11:37;;;;;;;12.10;2.10;;;9.90;99.90;;;;;;5066601;28;20047;-60
2023/12/29 12:14:03;;;;;;;12.13;2.58;;;9.70;99.90;;;;;;5066413;28;20185;-60
2023/12/29 12:16:58;;;;;;;14.60;2.25;;;9.80;99.90;;;;;;5071561;28;20443;-60
2023/12/29 12:19:27;;;;;;;17.38;2.42;;;9.70;99.90;;;;;;5060729;28;20087;-60
2023/12/29 12:21:55;;;;;;;17.30;2.88;;;9.60;99.90;;;;;;5057246;28;20500;-60
2023/12/29 12:24:20;;;;;;;13.48;2.53;;;9.40;99.90;;;;;;5058694;28;20413;-60
2023/12/29 12:26:46;;;;;;;13.63;1.95;;;9.40;99.90;;;;;;5052168;28;20033;-60
2023/12/29 12:29:14;;;;;;;16.35;2.55;;;9.20;99.90;;;;;;5058063;28;20056;-60
2023/12/29 12:32:07;;;;;;;16.75;2.80;;;9.20;99.90;;;;;;5060979;28;20155;-60
2023/12/29 12:34:39;;;;;;;17.13;2.17;;;9.20;99.90;;;;;;5065565;28;20053;-60
2023/12/29 12:37:05;;;;;;;12.70;2.60;;;9.10;99.90;;;;;;5060513;28;20040;-60
2023/12/29 12:39:41;;;;;;;13.27;2.25;;;9.20;99.90;;;;;;5062411;28;20102;-60
2023/12/29 12:42:06;;;;;;;20.40;2.55;;;9.00;99.90;;;;;;5050485;28;20036;-60
2023/12/29 12:44:32;;;;;;;13.80;2.40;;;8.90;99.90;;;;;;5064794;28;20116;-60
2023/12/29 12:47:01;;;;;;;13.23;3.38;;;9.00;99.90;;;;;;5069170;28;20074;-60